메인 페이지
METAR-TAF:

METAR-TAF

공항 :

나타우, 히우그란지두노르치, 브라질

위도: 05-46-05S, 경도: 035-22-34W, 고도: 88m

현재 날씨관측

예보는 13분 전, 23:00시(UTC)에 발표되었습니다.
4kt
온도 26°C
습도 89%
기압 1014 hPa
시정 10km 이상
고도 2300ft 상공 구름 조금
고도 8000ft 상공 구름 보통

METAR: SBSG 012300Z 17004KT 9999 FEW023 SCT080 26/24 Q1014

시각: 20:13 (23:13 UTC)

예보

예보는 8 시간 13분 전, 15:00시(UTC)에 발표되었습니다.
예보 대상 시간: 01일 18시부터 02일 18시까지 (UTC)
남남동10kt
시정 10km 이상
고도 2700ft 상공 구름 많음
전환 중
02일 03시부터 02일 05시까지 (UTC)
남동5kt
고도 2000ft 상공 구름 보통
확률 30% :
일시적
02일 14시부터 02일 17시까지 (UTC)
고도 2500ft 상공 구름 보통
고도 3000ft 상공 구름 조금, 타워링 적운.
시계 내 소나기

TAF: SBSG 011500Z 0118/0218 15010KT 9999 BKN027 TX30/0118Z TN24/0208Z BECMG 0203/0205 14005KT SCT020 PROB30 TEMPO 0214/0217 VCSH SCT025 FEW030TCU RMK PDV

4,000개 이상의 공항 관측 자료 및 예보 (METAR 및 TAF 보고).

지도상에서 검색 가능한 기상관측소가 노란 점과 빨간 점으로 표시되어 있습니다.

기상관측소 명을 보려면 표시 위로 마우스를 이동하세요.

날씨 관측과 예보를 보려면 클릭하세요.

지도 변경 : 확대하려면 엑스 표시가 있는 녹색 버튼, 축소하려면 빼기 표시가 있는 녹색 버튼, 다음 페이지의 지도를 보려면 녹색 화살표를 클릭하세요.


METAR-TAF: